Latest Coastal Weather Observations for Portland Harbour

IDS60701

Issued at 6:35 pm CDT Wednesday 22 October 2014 (issued every 10 minutes, with the page automatically refreshed every 10 minutes)

About coastal observations | Map of coastal stations | Coastal observations for SA | Marine services | Other Formats
Station Details ID: 090192 Name: PORTLAND NTC AWS Lat: -38.34 Lon: 141.61 Height: 0.0 m
Data from the previous 72 hours. | See also: Recent months for locations in South Australia
Date/Time
CDT
Temp

°C
Wind Pressure Rain
since 9am
mm
Weather Cloud Vis
km
Sea
Height
m
Swell
Dir
 
Speed
knots
Gust
knots
hPa Trend Height
m
Period
s
Dir
22/06:30pm 14.4 S 14 19 1018.8 - - - - - - - - -
22/06:00pm 14.4 S 13 20 1018.4 - - - - - - - - -
22/05:30pm 14.8 S 13 20 1018.0 - - - - - - - - -
22/05:00pm 15.0 S 15 21 1017.6 - - - - - - - - -
22/04:30pm 15.0 SSW 14 20 1017.5 - - - - - - - - -
22/04:00pm 15.3 SSW 15 21 1017.6 - - - - - - - - -
22/03:30pm 15.6 SSW 16 20 1017.6 - - - - - - - - -
22/03:00pm 15.9 SSW 19 25 1017.6 - - - - - - - - -
22/02:30pm 16.8 SSW 17 21 1017.4 - - - - - - - - -
22/02:00pm 17.6 S 16 22 1017.2 - - - - - - - - -
22/01:30pm 18.8 SSW 13 18 1017.0 - - - - - - - - -
22/01:00pm 23.2 WSW 12 16 1016.5 - - - - - - - - -
22/12:30pm 23.7 WSW 10 13 1016.3 - - - - - - - - -
22/12:00pm 23.0 WSW 12 16 1016.5 - - - - - - - - -
22/11:30am 21.5 WSW 10 17 1016.6 - - - - - - - - -
22/11:00am 20.6 SSE 6 16 1016.7 - - - - - - - - -
22/10:30am 18.0 E 2 3 1016.9 - - - - - - - - -
22/10:00am 18.0 ENE 4 5 1016.8 - - - - - - - - -
22/09:30am 18.5 E 1 2 1016.7 - - - - - - - - -
22/09:00am 16.5 SSW 1 3 1016.9 - - - - - - - - -
22/08:30am 16.7 ENE 4 5 1016.5 - - - - - - - - -
22/08:00am 17.0 N 4 4 1016.6 - - - - - - - - -
22/07:30am 17.2 SSW 2 4 1016.8 - - - - - - - - -
22/07:00am 17.4 ESE 3 4 1016.4 - - - - - - - - -
22/06:30am 16.6 SSW 2 3 1016.5 - - - - - - - - -
22/06:00am 16.7 SW 1 3 1016.2 - - - - - - - - -
22/05:30am 17.5 W 4 7 1016.3 - - - - - - - - -
22/05:00am 16.7 W 5 8 1016.3 - - - - - - - - -
22/04:30am 17.3 NNW 4 6 1015.9 - - - - - - - - -
22/04:00am 14.3 SW 3 3 1016.1 - - - - - - - - -
22/03:30am 14.3 SW 2 3 1016.1 - - - - - - - - -
22/03:00am 14.9 W 1 2 1016.2 - - - - - - - - -
22/02:30am 13.8 S 1 2 1016.3 - - - - - - - - -
22/02:00am 13.7 SW 2 3 1016.9 - - - - - - - - -
22/01:30am 13.8 SW 1 2 1017.3 - - - - - - - - -
22/01:00am 14.0 SW 1 2 1017.7 - - - - - - - - -
22/12:30am 14.9 CALM 0 1 1018.2 - - - - - - - - -
22/12:00am 15.7 E 2 3 1018.4 - - - - - - - - -
 
Date/Time
CDT
Temp

°C
Wind Pressure Rain
since 9am
mm
Weather Cloud Vis
km
Sea
Height
m
Swell
Dir
 
Speed
knots
Gust
knots
hPa Trend Height
m
Period
s
Dir
21/11:30pm 15.8 E 2 3 1018.8 - - - - - - - - -
21/11:00pm 15.9 ESE 2 2 1019.3 - - - - - - - - -
21/10:30pm 16.0 E 3 4 1019.5 - - - - - - - - -
21/10:00pm 16.1 ESE 3 4 1019.9 - - - - - - - - -
21/09:30pm 16.4 ESE 5 6 1020.2 - - - - - - - - -
21/09:00pm 16.3 ESE 4 5 1020.4 - - - - - - - - -
21/08:30pm 16.4 ESE 4 4 1020.5 - - - - - - - - -
21/08:00pm 16.6 E 8 10 1020.2 - - - - - - - - -
21/07:30pm 16.4 E 6 9 1020.2 - - - - - - - - -
21/07:00pm 16.2 E 6 8 1020.6 - - - - - - - - -
21/06:30pm 15.9 E 4 5 1020.5 - - - - - - - - -
21/06:00pm 15.9 E 6 7 1020.6 - - - - - - - - -
21/05:30pm 16.2 E 6 9 1020.7 - - - - - - - - -
21/05:00pm 16.4 ESE 7 9 1021.0 - - - - - - - - -
21/04:30pm 16.4 ESE 7 9 1021.3 - - - - - - - - -
21/04:00pm 16.5 ESE 8 10 1021.5 - - - - - - - - -
21/03:30pm 16.2 SE 9 10 1021.7 - - - - - - - - -
21/03:00pm 16.1 ESE 7 9 1022.2 - - - - - - - - -
21/02:30pm 16.0 ESE 7 9 1022.5 - - - - - - - - -
21/02:00pm 15.7 ESE 8 9 1022.9 - - - - - - - - -
21/01:30pm 15.2 ESE 10 11 1023.3 - - - - - - - - -
21/01:00pm 15.6 SE 7 9 1023.7 - - - - - - - - -
21/12:30pm 15.0 SE 7 9 1024.0 - - - - - - - - -
21/12:00pm 14.8 E 6 8 1024.1 - - - - - - - - -
21/11:30am 14.2 E 7 10 1024.3 - - - - - - - - -
21/11:00am 13.2 E 7 9 1024.6 - - - - - - - - -
21/10:30am 12.9 E 7 9 1024.9 - - - - - - - - -
21/10:00am 11.9 ENE 9 11 1025.1 - - - - - - - - -
21/09:30am 11.2 E 10 13 1025.1 - - - - - - - - -
21/09:00am 10.6 ENE 10 12 1025.1 - - - - - - - - -
21/08:30am 10.5 ENE 14 18 1025.3 - - - - - - - - -
21/08:00am 10.7 ENE 17 21 1025.2 - - - - - - - - -
21/07:30am 11.0 ENE 19 22 1025.1 - - - - - - - - -
21/07:00am 10.8 ENE 18 23 1025.0 - - - - - - - - -
21/06:30am 10.9 ENE 17 21 1024.9 - - - - - - - - -
21/06:00am 11.0 ENE 16 20 1024.8 - - - - - - - - -
21/05:30am 10.9 ENE 16 19 1024.7 - - - - - - - - -
21/05:00am 11.0 ENE 18 21 1024.7 - - - - - - - - -
21/04:30am 11.5 ENE 17 20 1024.9 - - - - - - - - -
21/04:00am 11.4 ENE 17 20 1025.1 - - - - - - - - -
21/03:30am 11.4 ENE 17 20 1025.2 - - - - - - - - -
21/03:00am 12.0 ENE 19 24 1025.4 - - - - - - - - -
21/02:30am 12.1 ENE 17 22 1025.6 - - - - - - - - -
21/02:00am 12.6 ENE 18 21 1025.8 - - - - - - - - -
21/01:30am 12.9 ENE 20 23 1026.0 - - - - - - - - -
21/01:00am 13.1 E 21 25 1026.4 - - - - - - - - -
21/12:30am 13.1 E 19 23 1026.9 - - - - - - - - -
21/12:00am 13.2 E 20 23 1027.2 - - - - - - - - -
 
Date/Time
CDT
Temp

°C
Wind Pressure Rain
since 9am
mm
Weather Cloud Vis
km
Sea
Height
m
Swell
Dir
 
Speed
knots
Gust
knots
hPa Trend Height
m
Period
s
Dir
20/11:30pm 13.2 E 19 23 1027.4 - - - - - - - - -
20/11:00pm 13.1 ENE 19 23 1027.6 - - - - - - - - -
20/10:30pm 13.1 ENE 19 23 1027.7 - - - - - - - - -
20/10:00pm 13.3 ENE 18 22 1027.8 - - - - - - - - -
20/09:30pm 13.9 E 20 24 1027.6 - - - - - - - - -
20/09:00pm 14.2 E 21 26 1027.4 - - - - - - - - -
20/08:30pm 13.9 E 20 26 1027.0 - - - - - - - - -
20/08:00pm 14.0 E 20 27 1026.9 - - - - - - - - -
20/07:30pm 13.7 E 20 26 1026.8 - - - - - - - - -
20/07:00pm 13.8 E 20 28 1026.8 - - - - - - - - -
20/06:30pm 13.9 ESE 17 23 1027.0 - - - - - - - - -
20/06:00pm 13.9 ESE 17 25 1027.3 - - - - - - - - -
20/05:30pm 13.8 ESE 16 24 1027.6 - - - - - - - - -
20/05:00pm 13.5 ESE 20 26 1027.9 - - - - - - - - -
20/04:30pm 13.3 ESE 20 28 1028.1 - - - - - - - - -
20/04:00pm 13.2 ESE 21 27 1028.5 - - - - - - - - -
20/03:30pm 13.4 ESE 19 25 1028.8 - - - - - - - - -
20/03:00pm 13.3 ESE 19 27 1028.9 - - - - - - - - -
20/02:30pm 13.3 ESE 19 25 1029.1 - - - - - - - - -
20/02:00pm 13.1 ESE 18 26 1029.2 - - - - - - - - -
20/01:30pm 13.3 ESE 18 25 1029.4 - - - - - - - - -
20/01:00pm 13.0 ESE 18 24 1029.9 - - - - - - - - -
20/12:30pm 13.1 E 17 22 1030.1 - - - - - - - - -
20/12:00pm 12.7 E 18 24 1030.3 - - - - - - - - -
20/11:30am 12.9 E 19 28 1030.5 - - - - - - - - -
20/11:00am 12.8 E 19 27 1030.9 - - - - - - - - -
20/10:30am 12.7 E 20 28 1030.7 - - - - - - - - -
20/10:00am 12.9 E 18 25 1030.8 - - - - - - - - -
20/09:30am 13.0 E 19 26 1030.8 - - - - - - - - -
20/09:00am 12.9 E 18 24 1030.8 - - - - - - - - -
20/08:30am 12.5 ESE 19 26 1030.7 - - - - - - - - -
20/08:00am 12.5 ESE 17 24 1030.6 - - - - - - - - -
20/07:30am 12.3 ESE 19 26 1030.3 - - - - - - - - -
20/07:01am 12.2 ESE 18 28 1030.0 - - - - - - - - -
20/07:00am 12.3 ESE 19 28 1030.0 - - - - - - - - -
20/06:30am 12.5 ESE 17 24 1029.2 - - - - - - - - -
20/06:00am 12.4 ESE 17 22 1029.3 - - - - - - - - -
20/05:30am 12.4 ESE 17 23 1029.3 - - - - - - - - -
20/05:00am 12.5 ESE 18 24 1029.0 - - - - - - - - -
20/04:30am 12.4 ESE 18 25 1028.9 - - - - - - - - -
20/04:00am 12.4 ESE 15 22 1028.5 - - - - - - - - -
20/03:30am 12.5 ESE 18 24 1028.7 - - - - - - - - -
20/03:00am 12.4 ESE 17 23 1028.7 - - - - - - - - -
20/02:30am 12.6 ESE 18 23 1028.6 - - - - - - - - -
20/02:00am 12.7 SE 18 24 1029.0 - - - - - - - - -
20/01:30am 12.8 SE 18 24 1028.8 - - - - - - - - -
20/01:00am 12.9 ESE 17 22 1029.2 - - - - - - - - -
20/12:30am 12.8 SE 18 24 1029.3 - - - - - - - - -
20/12:00am 12.9 SE 17 21 1029.3 - - - - - - - - -
 
Date/Time
CDT
Temp

°C
Wind Pressure Rain
since 9am
mm
Weather Cloud Vis
km
Sea
Height
m
Swell
Dir
 
Speed
knots
Gust
knots
hPa Trend Height
m
Period
s
Dir
19/11:30pm 13.0 SE 16 21 1029.4 - - - - - - - - -
19/11:00pm 13.0 SE 16 21 1029.3 - - - - - - - - -
19/10:30pm 13.1 SE 16 22 1029.2 - - - - - - - - -
19/10:00pm 12.9 SE 16 20 1029.0 - - - - - - - - -
19/09:30pm 12.8 SE 17 22 1028.8 - - - - - - - - -
19/09:00pm 12.1 SSE 16 21 1028.9 - - - - - - - - -
19/08:30pm 13.1 SSE 13 18 1028.1 - - - - - - - - -
19/08:00pm 13.1 SSE 12 17 1027.6 - - - - - - - - -
19/07:30pm 12.9 SSE 12 19 1027.5 - - - - - - - - -
19/07:00pm 12.8 SSE 15 21 1026.8 - - - - - - - - -
19/06:30pm 13.3 S 16 22 1026.3 - - - - - - - - -

Other Formats:

Comma delimited format used in spreadsheet applications
http://www.bom.gov.au/fwo/IDS60701/IDS60701.95826.axf

JavaScript Object Notation format (JSON) in row-major order
http://www.bom.gov.au/fwo/IDS60701/IDS60701.95826.json